THY5CJ LTFM-LTAI
Flight info
| Callsign | THY5CJ |
|---|---|
| Flight time | 0h 47m |
| Altitude | 35000 |
| Route | RATVU1E/36 RATVU UT35 BABSA |
| Aircraft | B738/M-SDE2E3FGHIRWXY/LB1 |
Departure
| Time | 2026-05-06 15:11 |
|---|---|
| Airport | İstanbul Airport (LTFM) |
Arrival
| Time | 2026-05-06 15:58 |
|---|---|
| Airport | Antalya International Airport (LTAI) |
| Time | Latitude | Longitude | Altitude | Speed | Heading |
|---|---|---|---|---|---|
| 2026-05-06 14:39 | 41.26387 | 28.74921 | 330 ft | 0 kts | 287° |
| 2026-05-06 14:41 | 41.26388 | 28.74888 | 330 ft | 0 kts | 288° |
| 2026-05-06 15:03 | 41.26384 | 28.74903 | 333 ft | 3 kts | 285° |
| 2026-05-06 15:03 | 41.26379 | 28.74930 | 328 ft | 3 kts | 282° |
| 2026-05-06 15:03 | 41.26375 | 28.74958 | 328 ft | 3 kts | 281° |
| 2026-05-06 15:04 | 41.26370 | 28.74985 | 331 ft | 2 kts | 287° |
| 2026-05-06 15:04 | 41.26366 | 28.75008 | 330 ft | 3 kts | 267° |
| 2026-05-06 15:04 | 41.26371 | 28.75031 | 329 ft | 3 kts | 224° |
| 2026-05-06 15:04 | 41.26388 | 28.75046 | 329 ft | 3 kts | 199° |
| 2026-05-06 15:05 | 41.26402 | 28.75052 | 328 ft | 0 kts | 197° |
| 2026-05-06 15:07 | 41.26394 | 28.75049 | 329 ft | 3 kts | 197° |
| 2026-05-06 15:07 | 41.26364 | 28.75037 | 330 ft | 6 kts | 197° |
| 2026-05-06 15:07 | 41.26314 | 28.75016 | 333 ft | 8 kts | 195° |
| 2026-05-06 15:08 | 41.26276 | 28.75016 | 330 ft | 8 kts | 162° |
| 2026-05-06 15:08 | 41.26245 | 28.75076 | 333 ft | 8 kts | 96° |
| 2026-05-06 15:08 | 41.26244 | 28.75151 | 333 ft | 8 kts | 90° |
| 2026-05-06 15:08 | 41.26245 | 28.75224 | 333 ft | 8 kts | 88° |
| 2026-05-06 15:09 | 41.26246 | 28.75295 | 333 ft | 8 kts | 89° |
| 2026-05-06 15:09 | 41.26247 | 28.75368 | 333 ft | 9 kts | 92° |
| 2026-05-06 15:09 | 41.26248 | 28.75455 | 333 ft | 10 kts | 89° |
| 2026-05-06 15:09 | 41.26249 | 28.75554 | 333 ft | 11 kts | 90° |
| 2026-05-06 15:10 | 41.26273 | 28.75656 | 331 ft | 12 kts | 43° |
| 2026-05-06 15:10 | 41.26356 | 28.75665 | 333 ft | 12 kts | 359° |
| 2026-05-06 15:10 | 41.26594 | 28.75661 | 329 ft | 69 kts | 359° |
| 2026-05-06 15:10 | 41.27317 | 28.75645 | 333 ft | 136 kts | 359° |
| 2026-05-06 15:11 | 41.28422 | 28.75626 | 600 ft | 168 kts | 1° |
| 2026-05-06 15:11 | 41.29618 | 28.75697 | 1305 ft | 178 kts | 17° |
| 2026-05-06 15:11 | 41.30619 | 28.76638 | 2092 ft | 180 kts | 50° |
| 2026-05-06 15:11 | 41.31538 | 28.77762 | 2855 ft | 188 kts | 26° |
| 2026-05-06 15:12 | 41.32752 | 28.78561 | 3363 ft | 205 kts | 22° |
| 2026-05-06 15:12 | 41.34057 | 28.79452 | 3864 ft | 219 kts | 25° |
| 2026-05-06 15:12 | 41.35498 | 28.80474 | 4085 ft | 250 kts | 25° |
| 2026-05-06 15:12 | 41.36985 | 28.81788 | 4738 ft | 264 kts | 43° |
| 2026-05-06 15:13 | 41.38005 | 28.83853 | 5628 ft | 272 kts | 62° |
| 2026-05-06 15:13 | 41.38441 | 28.86340 | 6469 ft | 282 kts | 84° |
| 2026-05-06 15:13 | 41.38467 | 28.88960 | 7312 ft | 285 kts | 88° |
| 2026-05-06 15:13 | 41.38069 | 28.91563 | 8063 ft | 296 kts | 114° |
| 2026-05-06 15:14 | 41.36755 | 28.93695 | 8867 ft | 304 kts | 143° |
| 2026-05-06 15:14 | 41.34806 | 28.94774 | 9645 ft | 308 kts | 174° |
| 2026-05-06 15:14 | 41.32650 | 28.94879 | 10341 ft | 314 kts | 181° |
| 2026-05-06 15:14 | 41.30384 | 28.94860 | 10589 ft | 337 kts | 181° |
| 2026-05-06 15:15 | 41.27956 | 28.94856 | 10775 ft | 361 kts | 180° |
| 2026-05-06 15:15 | 41.25369 | 28.94876 | 10975 ft | 382 kts | 181° |
| 2026-05-06 15:15 | 41.22681 | 28.94749 | 11456 ft | 391 kts | 184° |
| 2026-05-06 15:15 | 41.19949 | 28.94481 | 12146 ft | 395 kts | 185° |
| 2026-05-06 15:16 | 41.17201 | 28.94180 | 12883 ft | 397 kts | 185° |
| 2026-05-06 15:16 | 41.14441 | 28.93887 | 13610 ft | 400 kts | 185° |
| 2026-05-06 15:16 | 41.11654 | 28.93607 | 14260 ft | 404 kts | 185° |
| 2026-05-06 15:16 | 41.08825 | 28.93501 | 14832 ft | 409 kts | 176° |
| 2026-05-06 15:17 | 41.06045 | 28.94135 | 15402 ft | 414 kts | 164° |
| 2026-05-06 15:17 | 41.03274 | 28.95217 | 16026 ft | 416 kts | 163° |
| 2026-05-06 15:17 | 41.00486 | 28.96334 | 16622 ft | 421 kts | 163° |
| 2026-05-06 15:17 | 40.97667 | 28.97460 | 17176 ft | 425 kts | 163° |
| 2026-05-06 15:18 | 40.94822 | 28.98583 | 17740 ft | 429 kts | 163° |
| 2026-05-06 15:18 | 40.91945 | 28.99704 | 18315 ft | 433 kts | 163° |
| 2026-05-06 15:18 | 40.89043 | 29.00824 | 18804 ft | 436 kts | 163° |
| 2026-05-06 15:18 | 40.86119 | 29.01944 | 19285 ft | 439 kts | 164° |
| 2026-05-06 15:19 | 40.83170 | 29.03069 | 19765 ft | 443 kts | 164° |
| 2026-05-06 15:19 | 40.80202 | 29.04199 | 20237 ft | 446 kts | 164° |
| 2026-05-06 15:19 | 40.77204 | 29.05338 | 20694 ft | 449 kts | 164° |
| 2026-05-06 15:19 | 40.74188 | 29.06484 | 21123 ft | 453 kts | 164° |
| 2026-05-06 15:20 | 40.71145 | 29.07638 | 21567 ft | 456 kts | 164° |
| 2026-05-06 15:20 | 40.68083 | 29.08800 | 22023 ft | 459 kts | 164° |
| 2026-05-06 15:20 | 40.65001 | 29.09968 | 22464 ft | 462 kts | 164° |
| 2026-05-06 15:20 | 40.61898 | 29.11143 | 22888 ft | 465 kts | 165° |
| 2026-05-06 15:21 | 40.58779 | 29.12323 | 23297 ft | 468 kts | 165° |
| 2026-05-06 15:21 | 40.55629 | 29.13513 | 23679 ft | 471 kts | 165° |
| 2026-05-06 15:21 | 40.52468 | 29.14707 | 24019 ft | 474 kts | 165° |
| 2026-05-06 15:21 | 40.49281 | 29.15908 | 24355 ft | 477 kts | 165° |
| 2026-05-06 15:22 | 40.46080 | 29.17114 | 24704 ft | 479 kts | 165° |
| 2026-05-06 15:22 | 40.42872 | 29.18322 | 25037 ft | 482 kts | 165° |
| 2026-05-06 15:22 | 40.39634 | 29.19540 | 25330 ft | 486 kts | 165° |
| 2026-05-06 15:22 | 40.36376 | 29.20764 | 25657 ft | 488 kts | 165° |
| 2026-05-06 15:23 | 40.33103 | 29.21993 | 25954 ft | 491 kts | 165° |
| 2026-05-06 15:23 | 40.29810 | 29.23227 | 26264 ft | 494 kts | 165° |
| 2026-05-06 15:23 | 40.26500 | 29.24467 | 26560 ft | 496 kts | 165° |
| 2026-05-06 15:23 | 40.23172 | 29.25712 | 26853 ft | 498 kts | 165° |
| 2026-05-06 15:24 | 40.19878 | 29.26943 | 27179 ft | 499 kts | 165° |
| 2026-05-06 15:24 | 40.16529 | 29.28194 | 27473 ft | 501 kts | 165° |
| 2026-05-06 15:24 | 40.13171 | 29.29447 | 27773 ft | 503 kts | 165° |
| 2026-05-06 15:24 | 40.09797 | 29.30705 | 28073 ft | 505 kts | 165° |
| 2026-05-06 15:25 | 40.06414 | 29.31964 | 28448 ft | 506 kts | 165° |
| 2026-05-06 15:25 | 40.03035 | 29.33222 | 28844 ft | 504 kts | 165° |
| 2026-05-06 15:25 | 39.99661 | 29.34476 | 29056 ft | 504 kts | 165° |
| 2026-05-06 15:26 | 39.92890 | 29.36988 | 29040 ft | 505 kts | 165° |
| 2026-05-06 15:26 | 39.86209 | 29.40027 | 29279 ft | 513 kts | 158° |
| 2026-05-06 15:26 | 39.82938 | 29.41883 | 29642 ft | 513 kts | 156° |
| 2026-05-06 15:27 | 39.79682 | 29.43768 | 30036 ft | 512 kts | 157° |
| 2026-05-06 15:27 | 39.76428 | 29.45625 | 30388 ft | 511 kts | 157° |
| 2026-05-06 15:27 | 39.73163 | 29.47446 | 30738 ft | 509 kts | 158° |
| 2026-05-06 15:27 | 39.69900 | 29.49236 | 31076 ft | 508 kts | 158° |
| 2026-05-06 15:28 | 39.66645 | 29.51011 | 31366 ft | 508 kts | 158° |
| 2026-05-06 15:28 | 39.63385 | 29.52785 | 31629 ft | 509 kts | 158° |
| 2026-05-06 15:28 | 39.60100 | 29.54495 | 31964 ft | 507 kts | 160° |
| 2026-05-06 15:28 | 39.56815 | 29.56138 | 32373 ft | 504 kts | 160° |
| 2026-05-06 15:29 | 39.53538 | 29.57750 | 32706 ft | 503 kts | 160° |
| 2026-05-06 15:29 | 39.50266 | 29.59355 | 32995 ft | 503 kts | 160° |
| 2026-05-06 15:29 | 39.46997 | 29.60966 | 33237 ft | 503 kts | 160° |
| 2026-05-06 15:29 | 39.43727 | 29.62585 | 33531 ft | 503 kts | 160° |
| 2026-05-06 15:30 | 39.40468 | 29.64204 | 33858 ft | 501 kts | 160° |
| 2026-05-06 15:30 | 39.37213 | 29.65824 | 34162 ft | 500 kts | 160° |
| 2026-05-06 15:30 | 39.33968 | 29.67440 | 34377 ft | 500 kts | 160° |
| 2026-05-06 15:30 | 39.30721 | 29.69055 | 34571 ft | 500 kts | 160° |
| 2026-05-06 15:31 | 39.27512 | 29.70650 | 34768 ft | 500 kts | 160° |
| 2026-05-06 15:31 | 39.24270 | 29.72258 | 35008 ft | 499 kts | 160° |
| 2026-05-06 15:31 | 39.21021 | 29.73867 | 35040 ft | 502 kts | 160° |
| 2026-05-06 15:32 | 39.11263 | 29.78692 | 35046 ft | 498 kts | 160° |
| 2026-05-06 15:32 | 39.04767 | 29.81896 | 35058 ft | 495 kts | 160° |
| 2026-05-06 15:33 | 38.98383 | 29.85039 | 35058 ft | 493 kts | 161° |
| 2026-05-06 15:33 | 38.92195 | 29.88773 | 35058 ft | 494 kts | 143° |
| 2026-05-06 15:34 | 38.86978 | 29.94606 | 34982 ft | 503 kts | 136° |
| 2026-05-06 15:34 | 38.84414 | 29.97700 | 34727 ft | 508 kts | 137° |
| 2026-05-06 15:34 | 38.81576 | 30.00376 | 34455 ft | 506 kts | 153° |
| 2026-05-06 15:35 | 38.78364 | 30.02151 | 34252 ft | 499 kts | 162° |
| 2026-05-06 15:35 | 38.75080 | 30.03546 | 34021 ft | 498 kts | 164° |
| 2026-05-06 15:35 | 38.71865 | 30.05267 | 33705 ft | 503 kts | 149° |
| 2026-05-06 15:35 | 38.69105 | 30.07995 | 33461 ft | 503 kts | 133° |
| 2026-05-06 15:36 | 38.66962 | 30.11509 | 33241 ft | 501 kts | 120° |
| 2026-05-06 15:36 | 38.65181 | 30.15335 | 32985 ft | 499 kts | 117° |
| 2026-05-06 15:36 | 38.63509 | 30.19201 | 32644 ft | 496 kts | 116° |
| 2026-05-06 15:36 | 38.61864 | 30.23096 | 32224 ft | 499 kts | 116° |
| 2026-05-06 15:37 | 38.60215 | 30.27025 | 31801 ft | 504 kts | 116° |
| 2026-05-06 15:37 | 38.58558 | 30.30990 | 31395 ft | 505 kts | 116° |
| 2026-05-06 15:37 | 38.56904 | 30.34953 | 30954 ft | 505 kts | 116° |
| 2026-05-06 15:37 | 38.55249 | 30.38921 | 30553 ft | 505 kts | 116° |
| 2026-05-06 15:38 | 38.53602 | 30.42875 | 30250 ft | 502 kts | 116° |
| 2026-05-06 15:38 | 38.51984 | 30.46773 | 29779 ft | 502 kts | 116° |
| 2026-05-06 15:38 | 38.50351 | 30.50715 | 29306 ft | 502 kts | 116° |
| 2026-05-06 15:38 | 38.48721 | 30.54659 | 28701 ft | 500 kts | 116° |
| 2026-05-06 15:39 | 38.46758 | 30.58346 | 27970 ft | 499 kts | 132° |
| 2026-05-06 15:39 | 38.44205 | 30.61309 | 27186 ft | 497 kts | 145° |
| 2026-05-06 15:39 | 38.41261 | 30.63508 | 26686 ft | 488 kts | 157° |
| 2026-05-06 15:39 | 38.38044 | 30.64797 | 26067 ft | 481 kts | 169° |
| 2026-05-06 15:40 | 38.34790 | 30.65711 | 25470 ft | 476 kts | 169° |
| 2026-05-06 15:40 | 38.31570 | 30.66605 | 24896 ft | 473 kts | 169° |
| 2026-05-06 15:40 | 38.28368 | 30.67507 | 24319 ft | 469 kts | 169° |
| 2026-05-06 15:40 | 38.25199 | 30.68420 | 23733 ft | 466 kts | 168° |
| 2026-05-06 15:41 | 38.22050 | 30.69345 | 23053 ft | 462 kts | 168° |
| 2026-05-06 15:41 | 38.18976 | 30.70257 | 22441 ft | 458 kts | 168° |
| 2026-05-06 15:41 | 38.15854 | 30.71190 | 21864 ft | 452 kts | 168° |
| 2026-05-06 15:41 | 38.12845 | 30.72090 | 21258 ft | 448 kts | 168° |
| 2026-05-06 15:42 | 38.09817 | 30.72995 | 20709 ft | 444 kts | 168° |
| 2026-05-06 15:42 | 38.06826 | 30.73914 | 20144 ft | 441 kts | 167° |
| 2026-05-06 15:42 | 38.03861 | 30.74847 | 19576 ft | 437 kts | 168° |
| 2026-05-06 15:42 | 38.00913 | 30.75709 | 19040 ft | 433 kts | 168° |
| 2026-05-06 15:43 | 37.97977 | 30.76558 | 18471 ft | 431 kts | 168° |
| 2026-05-06 15:43 | 37.95056 | 30.77407 | 17828 ft | 429 kts | 168° |
| 2026-05-06 15:43 | 37.92152 | 30.78256 | 17242 ft | 425 kts | 168° |
| 2026-05-06 15:43 | 37.89282 | 30.79101 | 16673 ft | 422 kts | 168° |
| 2026-05-06 15:44 | 37.86442 | 30.79942 | 16120 ft | 417 kts | 168° |
| 2026-05-06 15:44 | 37.83625 | 30.80775 | 15590 ft | 414 kts | 168° |
| 2026-05-06 15:44 | 37.80865 | 30.81590 | 15015 ft | 412 kts | 168° |
| 2026-05-06 15:44 | 37.78106 | 30.82405 | 14463 ft | 410 kts | 168° |
| 2026-05-06 15:45 | 37.75337 | 30.83221 | 13920 ft | 407 kts | 168° |
| 2026-05-06 15:45 | 37.72590 | 30.84031 | 13328 ft | 404 kts | 167° |
| 2026-05-06 15:45 | 37.69865 | 30.84836 | 12755 ft | 400 kts | 168° |
| 2026-05-06 15:45 | 37.67171 | 30.85631 | 12245 ft | 395 kts | 168° |
| 2026-05-06 15:46 | 37.64506 | 30.86416 | 11707 ft | 391 kts | 167° |
| 2026-05-06 15:46 | 37.61901 | 30.87184 | 11262 ft | 385 kts | 167° |
| 2026-05-06 15:46 | 37.59311 | 30.87945 | 11138 ft | 371 kts | 168° |
| 2026-05-06 15:46 | 37.56886 | 30.88658 | 10980 ft | 357 kts | 167° |
| 2026-05-06 15:47 | 37.54563 | 30.89340 | 10854 ft | 338 kts | 167° |
| 2026-05-06 15:47 | 37.52321 | 30.89998 | 10482 ft | 326 kts | 167° |
| 2026-05-06 15:47 | 37.50139 | 30.90641 | 10085 ft | 317 kts | 167° |
| 2026-05-06 15:47 | 37.48014 | 30.91261 | 9674 ft | 309 kts | 167° |
| 2026-05-06 15:48 | 37.45979 | 30.91856 | 9554 ft | 293 kts | 167° |
| 2026-05-06 15:48 | 37.44004 | 30.92154 | 9211 ft | 284 kts | 188° |
| 2026-05-06 15:48 | 37.42137 | 30.91529 | 9050 ft | 269 kts | 201° |
| 2026-05-06 15:48 | 37.40409 | 30.90772 | 8949 ft | 260 kts | 201° |
| 2026-05-06 15:49 | 37.38740 | 30.90037 | 8936 ft | 248 kts | 201° |
| 2026-05-06 15:49 | 37.37154 | 30.89344 | 8773 ft | 244 kts | 201° |
| 2026-05-06 15:49 | 37.35529 | 30.88642 | 8347 ft | 251 kts | 201° |
| 2026-05-06 15:49 | 37.33871 | 30.87930 | 8067 ft | 252 kts | 200° |
| 2026-05-06 15:50 | 37.32222 | 30.87225 | 7914 ft | 247 kts | 201° |
| 2026-05-06 15:50 | 37.30601 | 30.86541 | 7706 ft | 245 kts | 198° |
| 2026-05-06 15:50 | 37.28935 | 30.86055 | 7418 ft | 247 kts | 193° |
| 2026-05-06 15:50 | 37.27232 | 30.85644 | 7071 ft | 250 kts | 192° |
| 2026-05-06 15:51 | 37.25519 | 30.85224 | 6805 ft | 248 kts | 193° |
| 2026-05-06 15:51 | 37.23870 | 30.84807 | 6706 ft | 235 kts | 193° |
| 2026-05-06 15:51 | 37.22278 | 30.84401 | 6448 ft | 231 kts | 193° |
| 2026-05-06 15:51 | 37.20715 | 30.83997 | 6124 ft | 229 kts | 193° |
| 2026-05-06 15:52 | 37.19169 | 30.83595 | 5853 ft | 225 kts | 193° |
| 2026-05-06 15:52 | 37.17611 | 30.83189 | 5303 ft | 236 kts | 191° |
| 2026-05-06 15:52 | 37.15988 | 30.82869 | 4971 ft | 239 kts | 188° |
| 2026-05-06 15:52 | 37.14332 | 30.82616 | 4654 ft | 240 kts | 186° |
| 2026-05-06 15:53 | 37.13243 | 30.82464 | 4445 ft | 236 kts | 186° |
| 2026-05-06 15:53 | 37.11644 | 30.82245 | 4125 ft | 226 kts | 186° |
| 2026-05-06 15:53 | 37.10100 | 30.82034 | 3820 ft | 221 kts | 185° |
| 2026-05-06 15:53 | 37.08587 | 30.81827 | 3527 ft | 216 kts | 186° |
| 2026-05-06 15:54 | 37.07128 | 30.81625 | 3236 ft | 205 kts | 185° |
| 2026-05-06 15:54 | 37.05766 | 30.81438 | 2964 ft | 189 kts | 185° |
| 2026-05-06 15:54 | 37.04503 | 30.81264 | 2742 ft | 175 kts | 185° |
| 2026-05-06 15:54 | 37.03345 | 30.81105 | 2543 ft | 158 kts | 185° |
| 2026-05-06 15:55 | 37.02252 | 30.80954 | 2326 ft | 156 kts | 186° |
| 2026-05-06 15:55 | 37.01178 | 30.80807 | 2105 ft | 155 kts | 186° |
| 2026-05-06 15:55 | 37.00110 | 30.80660 | 1905 ft | 153 kts | 185° |
| 2026-05-06 15:55 | 36.99039 | 30.80512 | 1710 ft | 156 kts | 186° |
| 2026-05-06 15:56 | 36.97972 | 30.80366 | 1507 ft | 153 kts | 185° |
| 2026-05-06 15:56 | 36.96913 | 30.80219 | 1269 ft | 150 kts | 186° |
| 2026-05-06 15:56 | 36.95897 | 30.80082 | 1045 ft | 147 kts | 184° |
| 2026-05-06 15:56 | 36.94857 | 30.79937 | 839 ft | 153 kts | 185° |
| 2026-05-06 15:57 | 36.93814 | 30.79795 | 667 ft | 152 kts | 184° |
| 2026-05-06 15:57 | 36.92802 | 30.79650 | 495 ft | 146 kts | 184° |
| 2026-05-06 15:57 | 36.91814 | 30.79515 | 284 ft | 143 kts | 185° |
| 2026-05-06 15:57 | 36.90854 | 30.79382 | 201 ft | 130 kts | 185° |
| 2026-05-06 15:58 | 36.90169 | 30.79290 | 197 ft | 74 kts | 186° |
| 2026-05-06 15:58 | 36.89863 | 30.79248 | 203 ft | 32 kts | 186° |
| 2026-05-06 15:58 | 36.89666 | 30.79222 | 205 ft | 21 kts | 184° |
| 2026-05-06 15:58 | 36.89533 | 30.79265 | 194 ft | 18 kts | 154° |
| 2026-05-06 15:59 | 36.89439 | 30.79315 | 193 ft | 9 kts | 160° |
| 2026-05-06 15:59 | 36.89434 | 30.79317 | 193 ft | 0 kts | 160° |
| 2026-05-06 15:59 | 36.89420 | 30.79325 | 191 ft | 4 kts | 156° |
| 2026-05-06 16:00 | 36.89389 | 30.79351 | 195 ft | 7 kts | 124° |
| 2026-05-06 16:00 | 36.89417 | 30.79403 | 201 ft | 10 kts | 15° |
| 2026-05-06 16:00 | 36.89501 | 30.79418 | 197 ft | 14 kts | 6° |
| 2026-05-06 16:00 | 36.89599 | 30.79431 | 191 ft | 14 kts | 7° |
| 2026-05-06 16:01 | 36.89694 | 30.79444 | 205 ft | 13 kts | 6° |
| 2026-05-06 16:01 | 36.89784 | 30.79456 | 190 ft | 13 kts | 6° |
| 2026-05-06 16:01 | 36.89873 | 30.79469 | 190 ft | 13 kts | 6° |
| 2026-05-06 16:01 | 36.89965 | 30.79481 | 195 ft | 13 kts | 6° |
| 2026-05-06 16:02 | 36.90056 | 30.79493 | 190 ft | 14 kts | 6° |
| 2026-05-06 16:02 | 36.90154 | 30.79507 | 204 ft | 15 kts | 6° |
| 2026-05-06 16:02 | 36.90253 | 30.79520 | 190 ft | 14 kts | 7° |
| 2026-05-06 16:02 | 36.90349 | 30.79534 | 190 ft | 13 kts | 7° |
| 2026-05-06 16:03 | 36.90441 | 30.79548 | 196 ft | 13 kts | 6° |
| 2026-05-06 16:03 | 36.90530 | 30.79560 | 190 ft | 13 kts | 5° |
| 2026-05-06 16:03 | 36.90623 | 30.79572 | 192 ft | 14 kts | 6° |
| 2026-05-06 16:03 | 36.90723 | 30.79584 | 194 ft | 14 kts | 5° |
| 2026-05-06 16:04 | 36.90817 | 30.79599 | 191 ft | 13 kts | 6° |
| 2026-05-06 16:04 | 36.90918 | 30.79614 | 201 ft | 17 kts | 6° |
| 2026-05-06 16:04 | 36.91039 | 30.79632 | 190 ft | 18 kts | 7° |
| 2026-05-06 16:04 | 36.91158 | 30.79649 | 192 ft | 17 kts | 9° |
| 2026-05-06 16:05 | 36.91208 | 30.79756 | 194 ft | 14 kts | 91° |
| 2026-05-06 16:05 | 36.91205 | 30.79844 | 190 ft | 0 kts | 92° |
| 2026-05-06 16:07 | 36.91205 | 30.79845 | 190 ft | 1 kts | 92° |
| 2026-05-06 16:07 | 36.91208 | 30.79863 | 200 ft | 4 kts | 67° |
| 2026-05-06 16:08 | 36.91245 | 30.79886 | 190 ft | 8 kts | 15° |
| 2026-05-06 16:08 | 36.91261 | 30.79943 | 195 ft | 8 kts | 94° |
| 2026-05-06 16:08 | 36.91256 | 30.80010 | 190 ft | 8 kts | 96° |
| 2026-05-06 16:08 | 36.91251 | 30.80058 | 197 ft | 1 kts | 97° |
| 2026-05-06 16:09 | 36.91251 | 30.80065 | 190 ft | 0 kts | 97° |